sensor_id;sensor_type;location;lat;lon;timestamp;pressure;altitude;pressure_sealevel;temperature;humidity
23589;BME280;11972;48.078;11.876;2023-04-29T00:01:43;93840.50;;;8.26;100.00
23589;BME280;11972;48.078;11.876;2023-04-29T00:05:44;93851.63;;;8.28;100.00
23589;BME280;11972;48.078;11.876;2023-04-29T00:09:44;93899.38;;;8.38;100.00
23589;BME280;11972;48.078;11.876;2023-04-29T00:13:45;93888.84;;;8.38;100.00
23589;BME280;11972;48.078;11.876;2023-04-29T00:17:45;93899.19;;;8.40;100.00
23589;BME280;11972;48.078;11.876;2023-04-29T00:21:46;93939.22;;;8.49;100.00
23589;BME280;11972;48.078;11.876;2023-04-29T00:25:46;93994.44;;;8.62;100.00
23589;BME280;11972;48.078;11.876;2023-04-29T00:29:46;94024.19;;;8.69;100.00
23589;BME280;11972;48.078;11.876;2023-04-29T00:33:47;94029.44;;;8.69;100.00
23589;BME280;11972;48.078;11.876;2023-04-29T00:37:47;94032.66;;;8.71;100.00
23589;BME280;11972;48.078;11.876;2023-04-29T00:41:47;94037.94;;;8.71;100.00
23589;BME280;11972;48.078;11.876;2023-04-29T00:45:48;94058.56;;;8.74;100.00
23589;BME280;11972;48.078;11.876;2023-04-29T00:49:48;94050.69;;;8.74;100.00
23589;BME280;11972;48.078;11.876;2023-04-29T00:53:49;94073.97;;;8.77;100.00
23589;BME280;11972;48.078;11.876;2023-04-29T00:57:50;94051.69;;;8.73;100.00
23589;BME280;11972;48.078;11.876;2023-04-29T01:01:51;94063.84;;;8.74;100.00
23589;BME280;11972;48.078;11.876;2023-04-29T01:06:00;94101.06;;;8.84;100.00
23589;BME280;11972;48.078;11.876;2023-04-29T01:10:09;94142.78;;;8.94;100.00
23589;BME280;11972;48.078;11.876;2023-04-29T01:14:14;94211.63;;;9.11;100.00
23589;BME280;11972;48.078;11.876;2023-04-29T01:18:18;94248.91;;;9.21;100.00
23589;BME280;11972;48.078;11.876;2023-04-29T01:22:19;94261.88;;;9.23;100.00
23589;BME280;11972;48.078;11.876;2023-04-29T01:26:22;94224.41;;;9.14;100.00
23589;BME280;11972;48.078;11.876;2023-04-29T01:30:32;94211.00;;;9.09;100.00
23589;BME280;11972;48.078;11.876;2023-04-29T01:34:48;94209.41;;;9.08;100.00
23589;BME280;11972;48.078;11.876;2023-04-29T01:43:33;94205.16;;;9.07;100.00
23589;BME280;11972;48.078;11.876;2023-04-29T01:47:36;94202.53;;;9.07;100.00
23589;BME280;11972;48.078;11.876;2023-04-29T01:51:36;94194.22;;;9.03;100.00
23589;BME280;11972;48.078;11.876;2023-04-29T01:55:37;94191.81;;;9.02;100.00
23589;BME280;11972;48.078;11.876;2023-04-29T01:59:37;94197.06;;;9.02;100.00
23589;BME280;11972;48.078;11.876;2023-04-29T02:03:37;94190.16;;;9.01;100.00
23589;BME280;11972;48.078;11.876;2023-04-29T02:07:38;94184.31;;;8.99;100.00
23589;BME280;11972;48.078;11.876;2023-04-29T02:11:38;94174.97;;;8.96;100.00
23589;BME280;11972;48.078;11.876;2023-04-29T02:15:39;94187.75;;;8.99;100.00
23589;BME280;11972;48.078;11.876;2023-04-29T02:19:39;94239.59;;;9.12;100.00
23589;BME280;11972;48.078;11.876;2023-04-29T02:23:40;94328.94;;;9.33;100.00
23589;BME280;11972;48.078;11.876;2023-04-29T02:27:40;94388.34;;;9.49;100.00
23589;BME280;11972;48.078;11.876;2023-04-29T02:31:40;94396.06;;;9.51;100.00
23589;BME280;11972;48.078;11.876;2023-04-29T02:35:41;94385.91;;;9.48;100.00
23589;BME280;11972;48.078;11.876;2023-04-29T02:39:41;94408.81;;;9.54;100.00
23589;BME280;11972;48.078;11.876;2023-04-29T02:43:41;94413.09;;;9.55;100.00
23589;BME280;11972;48.078;11.876;2023-04-29T02:47:43;94445.53;;;9.62;100.00
23589;BME280;11972;48.078;11.876;2023-04-29T02:51:43;94496.63;;;9.74;100.00
23589;BME280;11972;48.078;11.876;2023-04-29T02:55:43;94526.25;;;9.83;100.00
23589;BME280;11972;48.078;11.876;2023-04-29T02:59:44;94501.50;;;9.77;100.00
23589;BME280;11972;48.078;11.876;2023-04-29T03:03:44;94468.44;;;9.68;100.00
23589;BME280;11972;48.078;11.876;2023-04-29T03:07:44;94453.25;;;9.63;100.00
23589;BME280;11972;48.078;11.876;2023-04-29T03:11:45;94454.84;;;9.64;100.00
23589;BME280;11972;48.078;11.876;2023-04-29T03:15:45;94457.28;;;9.66;100.00
23589;BME280;11972;48.078;11.876;2023-04-29T03:19:45;94455.66;;;9.65;100.00
23589;BME280;11972;48.078;11.876;2023-04-29T03:23:46;94417.94;;;9.58;100.00
23589;BME280;11972;48.078;11.876;2023-04-29T03:27:46;94387.53;;;9.49;100.00
23589;BME280;11972;48.078;11.876;2023-04-29T03:31:46;94367.47;;;9.41;100.00
23589;BME280;11972;48.078;11.876;2023-04-29T03:35:47;94357.13;;;9.39;100.00
23589;BME280;11972;48.078;11.876;2023-04-29T03:39:47;94350.25;;;9.38;100.00
23589;BME280;11972;48.078;11.876;2023-04-29T03:43:47;94351.25;;;9.37;100.00
23589;BME280;11972;48.078;11.876;2023-04-29T03:47:48;94365.63;;;9.41;100.00
23589;BME280;11972;48.078;11.876;2023-04-29T03:51:48;94410.06;;;9.51;100.00
23589;BME280;11972;48.078;11.876;2023-04-29T03:55:48;94454.06;;;9.64;100.00
23589;BME280;11972;48.078;11.876;2023-04-29T03:59:49;94518.56;;;9.81;100.00
23589;BME280;11972;48.078;11.876;2023-04-29T04:03:49;94566.44;;;9.91;100.00
23589;BME280;11972;48.078;11.876;2023-04-29T04:07:50;94586.75;;;9.98;100.00
23589;BME280;11972;48.078;11.876;2023-04-29T04:11:51;94633.03;;;10.07;100.00
23589;BME280;11972;48.078;11.876;2023-04-29T04:15:51;94654.34;;;10.12;100.00
23589;BME280;11972;48.078;11.876;2023-04-29T04:19:52;94646.41;;;10.12;100.00
23589;BME280;11972;48.078;11.876;2023-04-29T04:23:52;94639.09;;;10.07;100.00
23589;BME280;11972;48.078;11.876;2023-04-29T04:27:52;94631.41;;;10.06;100.00
23589;BME280;11972;48.078;11.876;2023-04-29T04:31:53;94609.88;;;10.02;100.00
23589;BME280;11972;48.078;11.876;2023-04-29T04:35:54;94613.53;;;10.01;100.00
23589;BME280;11972;48.078;11.876;2023-04-29T04:39:55;94644.78;;;10.11;100.00
23589;BME280;11972;48.078;11.876;2023-04-29T04:43:55;94719.16;;;10.28;100.00
23589;BME280;11972;48.078;11.876;2023-04-29T04:47:56;94801.84;;;10.48;100.00
23589;BME280;11972;48.078;11.876;2023-04-29T04:51:56;94899.41;;;10.69;100.00
23589;BME280;11972;48.078;11.876;2023-04-29T04:56:00;94938.28;;;10.82;100.00
23589;BME280;11972;48.078;11.876;2023-04-29T05:00:00;95004.19;;;10.97;100.00
23589;BME280;11972;48.078;11.876;2023-04-29T05:04:01;95081.94;;;11.16;100.00
23589;BME280;11972;48.078;11.876;2023-04-29T05:08:02;95148.69;;;11.31;100.00
23589;BME280;11972;48.078;11.876;2023-04-29T05:12:02;95171.94;;;11.36;100.00
23589;BME280;11972;48.078;11.876;2023-04-29T05:16:03;95179.66;;;11.37;100.00
23589;BME280;11972;48.078;11.876;2023-04-29T05:20:04;95193.09;;;11.42;100.00
23589;BME280;11972;48.078;11.876;2023-04-29T05:24:05;95252.38;;;11.55;100.00
23589;BME280;11972;48.078;11.876;2023-04-29T05:28:06;95265.22;;;11.58;100.00
23589;BME280;11972;48.078;11.876;2023-04-29T05:32:06;95237.91;;;11.51;100.00
23589;BME280;11972;48.078;11.876;2023-04-29T05:36:07;95206.97;;;11.45;100.00
23589;BME280;11972;48.078;11.876;2023-04-29T05:40:07;95215.72;;;11.45;100.00
23589;BME280;11972;48.078;11.876;2023-04-29T05:44:08;95255.81;;;11.55;100.00
23589;BME280;11972;48.078;11.876;2023-04-29T05:48:09;95315.75;;;11.70;100.00
23589;BME280;11972;48.078;11.876;2023-04-29T05:52:09;95303.13;;;11.65;100.00
23589;BME280;11972;48.078;11.876;2023-04-29T05:56:10;95311.50;;;11.68;100.00
23589;BME280;11972;48.078;11.876;2023-04-29T06:00:10;95349.38;;;11.76;100.00
23589;BME280;11972;48.078;11.876;2023-04-29T06:04:11;95352.00;;;11.76;100.00
23589;BME280;11972;48.078;11.876;2023-04-29T06:08:11;95406.72;;;11.90;100.00
23589;BME280;11972;48.078;11.876;2023-04-29T06:12:11;95534.03;;;12.23;100.00
23589;BME280;11972;48.078;11.876;2023-04-29T06:16:12;95593.41;;;12.35;100.00
23589;BME280;11972;48.078;11.876;2023-04-29T06:20:12;95619.31;;;12.40;100.00
23589;BME280;11972;48.078;11.876;2023-04-29T06:24:12;95678.16;;;12.57;100.00
23589;BME280;11972;48.078;11.876;2023-04-29T06:28:13;95740.22;;;12.69;100.00
23589;BME280;11972;48.078;11.876;2023-04-29T06:32:13;95785.59;;;12.81;100.00
23589;BME280;11972;48.078;11.876;2023-04-29T06:36:13;95942.63;;;13.19;100.00
23589;BME280;11972;48.078;11.876;2023-04-29T06:40:14;96143.84;;;13.67;100.00
23589;BME280;11972;48.078;11.876;2023-04-29T06:44:14;95175.25;;;14.17;100.00
23589;BME280;11972;48.078;11.876;2023-04-29T06:48:17;95179.56;;;14.49;100.00
23589;BME280;11972;48.078;11.876;2023-04-29T06:52:17;95173.22;;;14.50;100.00
23589;BME280;11972;48.078;11.876;2023-04-29T06:56:18;95187.19;;;14.71;100.00
23589;BME280;11972;48.078;11.876;2023-04-29T07:00:18;95187.03;;;14.91;100.00
23589;BME280;11972;48.078;11.876;2023-04-29T07:04:20;95190.34;;;14.86;100.00
23589;BME280;11972;48.078;11.876;2023-04-29T07:08:20;95185.34;;;14.71;100.00
23589;BME280;11972;48.078;11.876;2023-04-29T07:12:20;95194.47;;;14.82;100.00
23589;BME280;11972;48.078;11.876;2023-04-29T07:16:21;95209.94;;;14.92;100.00
23589;BME280;11972;48.078;11.876;2023-04-29T07:20:21;95201.69;;;15.00;100.00
23589;BME280;11972;48.078;11.876;2023-04-29T07:24:22;95200.88;;;14.99;100.00
23589;BME280;11972;48.078;11.876;2023-04-29T07:28:23;95198.09;;;14.87;100.00
23589;BME280;11972;48.078;11.876;2023-04-29T07:32:23;95200.63;;;15.26;100.00
23589;BME280;11972;48.078;11.876;2023-04-29T07:36:24;95198.38;;;15.48;100.00
23589;BME280;11972;48.078;11.876;2023-04-29T07:40:27;95195.75;;;15.66;100.00
23589;BME280;11972;48.078;11.876;2023-04-29T07:44:27;95204.56;;;15.42;100.00
23589;BME280;11972;48.078;11.876;2023-04-29T07:48:28;95208.50;;;15.57;100.00
23589;BME280;11972;48.078;11.876;2023-04-29T07:52:28;95207.13;;;15.92;100.00
23589;BME280;11972;48.078;11.876;2023-04-29T07:56:28;95209.56;;;16.30;100.00
23589;BME280;11972;48.078;11.876;2023-04-29T08:00:29;95212.22;;;16.30;100.00
23589;BME280;11972;48.078;11.876;2023-04-29T08:04:29;95213.16;;;16.35;100.00
23589;BME280;11972;48.078;11.876;2023-04-29T08:08:30;95222.75;;;16.55;100.00
23589;BME280;11972;48.078;11.876;2023-04-29T08:12:30;95225.56;;;16.42;100.00
23589;BME280;11972;48.078;11.876;2023-04-29T08:16:31;95220.69;;;16.69;100.00
23589;BME280;11972;48.078;11.876;2023-04-29T08:20:31;95211.53;;;17.06;100.00
23589;BME280;11972;48.078;11.876;2023-04-29T08:24:31;95215.44;;;16.50;100.00
23589;BME280;11972;48.078;11.876;2023-04-29T08:28:34;95227.16;;;16.31;100.00
23589;BME280;11972;48.078;11.876;2023-04-29T08:32:46;95231.81;;;16.35;100.00
23589;BME280;11972;48.078;11.876;2023-04-29T08:36:53;95231.88;;;16.77;100.00
23589;BME280;11972;48.078;11.876;2023-04-29T08:40:53;95224.31;;;17.40;100.00
23589;BME280;11972;48.078;11.876;2023-04-29T08:44:54;95218.97;;;17.51;100.00
23589;BME280;11972;48.078;11.876;2023-04-29T08:48:55;95208.88;;;17.89;100.00
23589;BME280;11972;48.078;11.876;2023-04-29T08:52:56;95217.94;;;17.41;100.00
23589;BME280;11972;48.078;11.876;2023-04-29T08:56:57;95206.44;;;17.87;100.00
23589;BME280;11972;48.078;11.876;2023-04-29T09:00:59;95195.53;;;17.42;100.00
23589;BME280;11972;48.078;11.876;2023-04-29T09:05:04;95197.47;;;17.11;100.00
23589;BME280;11972;48.078;11.876;2023-04-29T09:09:08;95199.72;;;16.72;100.00
23589;BME280;11972;48.078;11.876;2023-04-29T09:13:30;95206.53;;;16.08;100.00
23589;BME280;11972;48.078;11.876;2023-04-29T09:21:38;95198.13;;;15.74;100.00
23589;BME280;11972;48.078;11.876;2023-04-29T09:25:38;95181.91;;;15.76;100.00
23589;BME280;11972;48.078;11.876;2023-04-29T09:29:59;95188.44;;;16.28;100.00
23589;BME280;11972;48.078;11.876;2023-04-29T09:34:00;95182.78;;;17.20;100.00
23589;BME280;11972;48.078;11.876;2023-04-29T09:38:18;95169.94;;;18.33;100.00
23589;BME280;11972;48.078;11.876;2023-04-29T09:42:20;95155.44;;;18.91;100.00
23589;BME280;11972;48.078;11.876;2023-04-29T09:46:20;95156.44;;;19.57;100.00
23589;BME280;11972;48.078;11.876;2023-04-29T09:50:20;95152.97;;;19.79;100.00
23589;BME280;11972;48.078;11.876;2023-04-29T09:54:23;95164.47;;;19.02;100.00
23589;BME280;11972;48.078;11.876;2023-04-29T09:58:31;95166.44;;;18.04;100.00
23589;BME280;11972;48.078;11.876;2023-04-29T10:02:36;95168.88;;;17.94;100.00
23589;BME280;11972;48.078;11.876;2023-04-29T10:06:41;95166.94;;;17.89;100.00
23589;BME280;11972;48.078;11.876;2023-04-29T10:10:42;95160.78;;;17.89;100.00
23589;BME280;11972;48.078;11.876;2023-04-29T10:15:02;95158.94;;;18.18;100.00
23589;BME280;11972;48.078;11.876;2023-04-29T10:19:06;95164.44;;;18.11;100.00
23589;BME280;11972;48.078;11.876;2023-04-29T10:23:12;95157.03;;;17.90;100.00
23589;BME280;11972;48.078;11.876;2023-04-29T10:27:14;95153.03;;;17.75;100.00
23589;BME280;11972;48.078;11.876;2023-04-29T10:31:17;95155.16;;;18.02;100.00
23589;BME280;11972;48.078;11.876;2023-04-29T10:35:20;95155.16;;;18.30;100.00
23589;BME280;11972;48.078;11.876;2023-04-29T10:39:34;95152.28;;;19.28;100.00
23589;BME280;11972;48.078;11.876;2023-04-29T10:43:36;95151.75;;;19.48;100.00
23589;BME280;11972;48.078;11.876;2023-04-29T10:47:36;95150.13;;;18.63;100.00
23589;BME280;11972;48.078;11.876;2023-04-29T10:51:44;95162.59;;;17.24;100.00
23589;BME280;11972;48.078;11.876;2023-04-29T10:55:52;95170.59;;;16.59;100.00
23589;BME280;11972;48.078;11.876;2023-04-29T10:59:53;95170.25;;;16.67;100.00
23589;BME280;11972;48.078;11.876;2023-04-29T11:03:55;95167.13;;;16.58;100.00
23589;BME280;11972;48.078;11.876;2023-04-29T11:08:12;95156.00;;;16.31;100.00
23589;BME280;11972;48.078;11.876;2023-04-29T11:12:19;95162.38;;;16.30;100.00
23589;BME280;11972;48.078;11.876;2023-04-29T11:16:24;95152.03;;;16.64;100.00
23589;BME280;11972;48.078;11.876;2023-04-29T11:20:27;95143.75;;;17.31;100.00
23589;BME280;11972;48.078;11.876;2023-04-29T11:24:27;95137.41;;;18.24;100.00
23589;BME280;11972;48.078;11.876;2023-04-29T11:28:29;95140.41;;;18.56;100.00
23589;BME280;11972;48.078;11.876;2023-04-29T11:32:35;95136.94;;;19.23;100.00
23589;BME280;11972;48.078;11.876;2023-04-29T11:36:36;95142.53;;;18.71;100.00
23589;BME280;11972;48.078;11.876;2023-04-29T11:40:49;95157.09;;;17.66;100.00
23589;BME280;11972;48.078;11.876;2023-04-29T11:44:50;95147.94;;;17.15;100.00
23589;BME280;11972;48.078;11.876;2023-04-29T11:48:51;95161.06;;;17.05;100.00
23589;BME280;11972;48.078;11.876;2023-04-29T11:52:52;95172.66;;;17.46;100.00
23589;BME280;11972;48.078;11.876;2023-04-29T11:56:53;95150.69;;;18.19;100.00
23589;BME280;11972;48.078;11.876;2023-04-29T12:00:57;95153.09;;;18.49;100.00
23589;BME280;11972;48.078;11.876;2023-04-29T12:04:58;95157.66;;;18.20;100.00
23589;BME280;11972;48.078;11.876;2023-04-29T12:09:00;95161.53;;;18.13;100.00
23589;BME280;11972;48.078;11.876;2023-04-29T12:13:01;95162.47;;;18.06;100.00
23589;BME280;11972;48.078;11.876;2023-04-29T12:17:03;95180.88;;;17.91;100.00
23589;BME280;11972;48.078;11.876;2023-04-29T12:21:03;95166.81;;;17.96;100.00
23589;BME280;11972;48.078;11.876;2023-04-29T12:25:05;95165.09;;;18.47;100.00
23589;BME280;11972;48.078;11.876;2023-04-29T12:29:09;95163.72;;;19.06;100.00
23589;BME280;11972;48.078;11.876;2023-04-29T12:33:09;95149.44;;;18.39;100.00
23589;BME280;11972;48.078;11.876;2023-04-29T12:37:10;95156.97;;;18.42;100.00
23589;BME280;11972;48.078;11.876;2023-04-29T12:41:12;95153.13;;;18.21;100.00
23589;BME280;11972;48.078;11.876;2023-04-29T12:45:30;95157.84;;;18.30;100.00
23589;BME280;11972;48.078;11.876;2023-04-29T12:49:32;95165.19;;;18.52;100.00
23589;BME280;11972;48.078;11.876;2023-04-29T12:53:33;95162.91;;;19.06;100.00
23589;BME280;11972;48.078;11.876;2023-04-29T12:57:33;95182.63;;;19.00;100.00
23589;BME280;11972;48.078;11.876;2023-04-29T13:01:37;95183.13;;;18.68;100.00
23589;BME280;11972;48.078;11.876;2023-04-29T13:05:38;95174.03;;;18.81;100.00
23589;BME280;11972;48.078;11.876;2023-04-29T13:09:39;95172.56;;;18.73;100.00
23589;BME280;11972;48.078;11.876;2023-04-29T13:13:40;95171.19;;;18.59;100.00
23589;BME280;11972;48.078;11.876;2023-04-29T13:17:41;95159.84;;;18.52;100.00
23589;BME280;11972;48.078;11.876;2023-04-29T13:21:41;95165.22;;;18.23;100.00
23589;BME280;11972;48.078;11.876;2023-04-29T13:25:41;95167.72;;;17.90;100.00
23589;BME280;11972;48.078;11.876;2023-04-29T13:29:42;95163.06;;;18.37;100.00
23589;BME280;11972;48.078;11.876;2023-04-29T13:33:42;95157.09;;;18.64;100.00
23589;BME280;11972;48.078;11.876;2023-04-29T13:37:43;95167.78;;;18.64;100.00
23589;BME280;11972;48.078;11.876;2023-04-29T13:41:43;95168.09;;;18.96;100.00
23589;BME280;11972;48.078;11.876;2023-04-29T13:45:44;95162.66;;;18.91;100.00
23589;BME280;11972;48.078;11.876;2023-04-29T13:49:44;95169.31;;;19.05;100.00
23589;BME280;11972;48.078;11.876;2023-04-29T13:53:45;95158.19;;;19.13;100.00
23589;BME280;11972;48.078;11.876;2023-04-29T13:57:45;95166.63;;;19.39;100.00
23589;BME280;11972;48.078;11.876;2023-04-29T14:01:46;95159.06;;;19.36;100.00
23589;BME280;11972;48.078;11.876;2023-04-29T14:05:46;95152.25;;;19.45;100.00
23589;BME280;11972;48.078;11.876;2023-04-29T14:09:47;95153.84;;;19.46;100.00
23589;BME280;11972;48.078;11.876;2023-04-29T14:13:49;95150.88;;;20.03;100.00
23589;BME280;11972;48.078;11.876;2023-04-29T14:17:51;95149.44;;;20.17;100.00
23589;BME280;11972;48.078;11.876;2023-04-29T14:21:52;95168.78;;;19.75;100.00
23589;BME280;11972;48.078;11.876;2023-04-29T14:25:52;95184.25;;;19.34;100.00
23589;BME280;11972;48.078;11.876;2023-04-29T14:29:53;95182.38;;;19.35;100.00
23589;BME280;11972;48.078;11.876;2023-04-29T14:33:56;95177.09;;;19.40;100.00
23589;BME280;11972;48.078;11.876;2023-04-29T14:37:57;95188.38;;;19.25;100.00
23589;BME280;11972;48.078;11.876;2023-04-29T14:41:57;95183.00;;;18.92;100.00
23589;BME280;11972;48.078;11.876;2023-04-29T14:45:58;95195.19;;;18.54;100.00
23589;BME280;11972;48.078;11.876;2023-04-29T14:49:58;95198.59;;;18.66;100.00
23589;BME280;11972;48.078;11.876;2023-04-29T14:53:59;95207.50;;;19.17;100.00
23589;BME280;11972;48.078;11.876;2023-04-29T14:57:59;95212.03;;;18.54;100.00
23589;BME280;11972;48.078;11.876;2023-04-29T15:02:03;95213.56;;;18.10;100.00
23589;BME280;11972;48.078;11.876;2023-04-29T15:06:04;95217.44;;;18.71;100.00
23589;BME280;11972;48.078;11.876;2023-04-29T15:10:05;95213.84;;;18.66;100.00
23589;BME280;11972;48.078;11.876;2023-04-29T15:14:08;95223.16;;;17.94;100.00
23589;BME280;11972;48.078;11.876;2023-04-29T15:18:08;95225.94;;;17.64;100.00
23589;BME280;11972;48.078;11.876;2023-04-29T15:22:09;95221.66;;;17.63;100.00
23589;BME280;11972;48.078;11.876;2023-04-29T15:26:09;95227.06;;;18.15;100.00
23589;BME280;11972;48.078;11.876;2023-04-29T15:30:11;95222.81;;;18.31;100.00
23589;BME280;11972;48.078;11.876;2023-04-29T15:34:11;95234.66;;;17.95;100.00
23589;BME280;11972;48.078;11.876;2023-04-29T15:38:11;95235.69;;;17.47;100.00
23589;BME280;11972;48.078;11.876;2023-04-29T15:42:12;95238.69;;;17.15;100.00
23589;BME280;11972;48.078;11.876;2023-04-29T15:46:12;95243.91;;;17.10;100.00
23589;BME280;11972;48.078;11.876;2023-04-29T15:50:13;95242.88;;;17.23;100.00
23589;BME280;11972;48.078;11.876;2023-04-29T15:54:13;95254.56;;;17.10;100.00
23589;BME280;11972;48.078;11.876;2023-04-29T15:58:13;95251.31;;;16.96;100.00
23589;BME280;11972;48.078;11.876;2023-04-29T16:02:14;95263.44;;;16.62;100.00
23589;BME280;11972;48.078;11.876;2023-04-29T16:06:15;95258.41;;;16.54;100.00
23589;BME280;11972;48.078;11.876;2023-04-29T16:10:15;95261.56;;;16.51;100.00
23589;BME280;11972;48.078;11.876;2023-04-29T16:14:15;95268.06;;;16.55;100.00
23589;BME280;11972;48.078;11.876;2023-04-29T16:18:16;95267.50;;;16.65;100.00
23589;BME280;11972;48.078;11.876;2023-04-29T16:22:16;95271.69;;;16.91;100.00
23589;BME280;11972;48.078;11.876;2023-04-29T16:26:17;95283.38;;;17.31;100.00
23589;BME280;11972;48.078;11.876;2023-04-29T16:30:18;95279.22;;;17.35;100.00
23589;BME280;11972;48.078;11.876;2023-04-29T16:34:18;95288.84;;;16.95;100.00
23589;BME280;11972;48.078;11.876;2023-04-29T16:38:19;95286.88;;;16.90;100.00
23589;BME280;11972;48.078;11.876;2023-04-29T16:42:19;95279.63;;;17.09;100.00
23589;BME280;11972;48.078;11.876;2023-04-29T16:46:20;95292.88;;;17.27;100.00
23589;BME280;11972;48.078;11.876;2023-04-29T16:50:20;95299.00;;;17.81;100.00
23589;BME280;11972;48.078;11.876;2023-04-29T16:54:22;95298.53;;;17.07;100.00
23589;BME280;11972;48.078;11.876;2023-04-29T16:58:22;95308.75;;;16.62;100.00
23589;BME280;11972;48.078;11.876;2023-04-29T17:02:22;95305.31;;;16.25;100.00
23589;BME280;11972;48.078;11.876;2023-04-29T17:06:23;95318.28;;;16.03;100.00
23589;BME280;11972;48.078;11.876;2023-04-29T17:10:24;95314.19;;;16.00;100.00
23589;BME280;11972;48.078;11.876;2023-04-29T17:14:24;95317.59;;;16.07;100.00
23589;BME280;11972;48.078;11.876;2023-04-29T17:18:25;95326.56;;;15.95;100.00
23589;BME280;11972;48.078;11.876;2023-04-29T17:22:26;95329.47;;;15.68;100.00
23589;BME280;11972;48.078;11.876;2023-04-29T17:26:26;95332.03;;;15.50;100.00
23589;BME280;11972;48.078;11.876;2023-04-29T17:30:26;95329.16;;;15.26;100.00
23589;BME280;11972;48.078;11.876;2023-04-29T17:34:27;95336.63;;;15.11;100.00
23589;BME280;11972;48.078;11.876;2023-04-29T17:38:29;95340.41;;;14.97;100.00
23589;BME280;11972;48.078;11.876;2023-04-29T17:42:32;95348.06;;;14.80;100.00
23589;BME280;11972;48.078;11.876;2023-04-29T17:46:32;95349.59;;;14.56;100.00
23589;BME280;11972;48.078;11.876;2023-04-29T17:50:33;95350.84;;;14.47;100.00
23589;BME280;11972;48.078;11.876;2023-04-29T17:54:37;95356.22;;;14.33;100.00
23589;BME280;11972;48.078;11.876;2023-04-29T17:58:38;95364.00;;;14.28;100.00
23589;BME280;11972;48.078;11.876;2023-04-29T18:02:38;95376.47;;;14.21;100.00
23589;BME280;11972;48.078;11.876;2023-04-29T18:06:38;95379.97;;;14.08;100.00
23589;BME280;11972;48.078;11.876;2023-04-29T18:10:39;95392.25;;;13.96;100.00
23589;BME280;11972;48.078;11.876;2023-04-29T18:14:39;95390.63;;;13.88;100.00
23589;BME280;11972;48.078;11.876;2023-04-29T18:18:41;95389.59;;;13.76;100.00
23589;BME280;11972;48.078;11.876;2023-04-29T18:22:42;95392.88;;;13.65;100.00
23589;BME280;11972;48.078;11.876;2023-04-29T18:26:42;95396.75;;;13.56;100.00
23589;BME280;11972;48.078;11.876;2023-04-29T18:30:44;95400.81;;;13.45;100.00
23589;BME280;11972;48.078;11.876;2023-04-29T18:34:46;95397.88;;;13.20;100.00
23589;BME280;11972;48.078;11.876;2023-04-29T18:38:46;95398.88;;;12.93;100.00
23589;BME280;11972;48.078;11.876;2023-04-29T18:42:47;95411.63;;;12.69;100.00
23589;BME280;11972;48.078;11.876;2023-04-29T18:46:47;95420.13;;;12.58;100.00
23589;BME280;11972;48.078;11.876;2023-04-29T18:50:51;95427.03;;;12.52;100.00
23589;BME280;11972;48.078;11.876;2023-04-29T18:54:52;95430.28;;;12.48;100.00
23589;BME280;11972;48.078;11.876;2023-04-29T18:58:52;95436.75;;;12.38;100.00
23589;BME280;11972;48.078;11.876;2023-04-29T19:02:52;95444.00;;;12.30;100.00
23589;BME280;11972;48.078;11.876;2023-04-29T19:06:53;95446.00;;;12.21;100.00
23589;BME280;11972;48.078;11.876;2023-04-29T19:10:53;95457.63;;;12.20;100.00
23589;BME280;11972;48.078;11.876;2023-04-29T19:14:54;95460.91;;;12.22;100.00
23589;BME280;11972;48.078;11.876;2023-04-29T19:18:54;95463.34;;;12.24;100.00
23589;BME280;11972;48.078;11.876;2023-04-29T19:22:54;95462.53;;;12.23;100.00
23589;BME280;11972;48.078;11.876;2023-04-29T19:26:55;95463.34;;;12.24;100.00
23589;BME280;11972;48.078;11.876;2023-04-29T19:30:56;95458.25;;;12.22;100.00
23589;BME280;11972;48.078;11.876;2023-04-29T19:34:56;95463.13;;;12.25;100.00
23589;BME280;11972;48.078;11.876;2023-04-29T19:38:56;95459.25;;;12.21;100.00
23589;BME280;11972;48.078;11.876;2023-04-29T19:42:57;95463.94;;;12.19;100.00
23589;BME280;11972;48.078;11.876;2023-04-29T19:46:57;95462.69;;;12.15;100.00
23589;BME280;11972;48.078;11.876;2023-04-29T19:50:58;95464.66;;;12.06;100.00
23589;BME280;11972;48.078;11.876;2023-04-29T19:54:58;95463.09;;;11.90;100.00
23589;BME280;11972;48.078;11.876;2023-04-29T19:58:59;95473.56;;;11.77;100.00
23589;BME280;11972;48.078;11.876;2023-04-29T20:02:59;95478.91;;;11.62;100.00
23589;BME280;11972;48.078;11.876;2023-04-29T20:06:59;95484.53;;;11.53;100.00
23589;BME280;11972;48.078;11.876;2023-04-29T20:11:01;95491.81;;;11.51;100.00
23589;BME280;11972;48.078;11.876;2023-04-29T20:15:04;95488.91;;;11.46;100.00
23589;BME280;11972;48.078;11.876;2023-04-29T20:19:05;95479.97;;;11.47;100.00
23589;BME280;11972;48.078;11.876;2023-04-29T20:23:05;95480.34;;;11.43;100.00
23589;BME280;11972;48.078;11.876;2023-04-29T20:27:06;95487.00;;;11.39;100.00
23589;BME280;11972;48.078;11.876;2023-04-29T20:31:07;95481.09;;;11.37;100.00
23589;BME280;11972;48.078;11.876;2023-04-29T20:35:07;95484.78;;;11.36;100.00
23589;BME280;11972;48.078;11.876;2023-04-29T20:39:08;95483.75;;;11.37;100.00
23589;BME280;11972;48.078;11.876;2023-04-29T20:43:08;95480.28;;;11.37;100.00
23589;BME280;11972;48.078;11.876;2023-04-29T20:47:09;95485.75;;;11.35;100.00
23589;BME280;11972;48.078;11.876;2023-04-29T20:51:09;95490.63;;;11.32;100.00
23589;BME280;11972;48.078;11.876;2023-04-29T20:55:11;95488.78;;;11.32;100.00
23589;BME280;11972;48.078;11.876;2023-04-29T20:59:11;95489.41;;;11.34;100.00